createdAt,value
2022-11-30T00:01:36.041Z,10.33
2022-11-30T00:04:24.498Z,11.10
2022-11-30T00:07:13.144Z,10.87
2022-11-30T00:10:01.522Z,10.30
2022-11-30T00:12:51.459Z,11.47
2022-11-30T00:15:39.897Z,10.77
2022-11-30T00:18:29.870Z,11.27
2022-11-30T00:21:18.332Z,11.40
2022-11-30T00:24:07.623Z,11.03
2022-11-30T00:26:56.053Z,12.00
2022-11-30T00:29:45.789Z,11.07
2022-11-30T00:32:34.206Z,11.43
2022-11-30T00:35:22.602Z,10.77
2022-11-30T00:38:10.984Z,9.43
2022-11-30T00:40:59.393Z,10.20
2022-11-30T00:43:48.011Z,10.47
2022-11-30T00:46:37.761Z,12.27
2022-11-30T00:49:26.195Z,9.27
2022-11-30T00:52:15.358Z,10.00
2022-11-30T00:55:04.399Z,9.87
2022-11-30T00:57:53.059Z,10.53
2022-11-30T01:00:41.706Z,11.30
2022-11-30T01:03:31.410Z,10.13
2022-11-30T01:06:19.916Z,10.47
2022-11-30T01:09:09.136Z,11.07
2022-11-30T01:11:57.485Z,10.20
2022-11-30T01:14:46.169Z,9.60
2022-11-30T01:17:34.969Z,9.93
2022-11-30T01:20:24.705Z,9.20
2022-11-30T01:23:13.145Z,9.70
2022-11-30T01:26:01.537Z,9.63
2022-11-30T01:28:51.562Z,9.57
2022-11-30T01:31:39.981Z,10.20
2022-11-30T01:34:28.399Z,9.83
2022-11-30T01:37:18.176Z,9.63
2022-11-30T01:40:08.440Z,10.60
2022-11-30T01:42:56.850Z,10.73
2022-11-30T01:45:45.301Z,10.13
2022-11-30T01:48:33.713Z,11.07
2022-11-30T01:51:22.072Z,11.00
2022-11-30T01:54:13.237Z,11.03
2022-11-30T01:57:04.238Z,11.30
2022-11-30T01:59:54.172Z,10.10
2022-11-30T02:02:48.819Z,10.20
2022-11-30T02:05:38.946Z,10.73
2022-11-30T02:08:27.483Z,10.07
2022-11-30T02:11:17.381Z,10.53
2022-11-30T02:14:15.739Z,11.00
2022-11-30T02:17:12.501Z,10.57
2022-11-30T02:20:57.363Z,10.47
2022-11-30T02:24:13.224Z,10.40
2022-11-30T02:27:14.845Z,10.43
2022-11-30T02:30:06.397Z,10.37
2022-11-30T02:32:57.642Z,10.93
2022-11-30T02:35:54.538Z,10.77
2022-11-30T02:38:43.614Z,11.30
2022-11-30T02:41:38.423Z,11.13
2022-11-30T02:44:26.890Z,12.13
2022-11-30T02:47:22.582Z,11.00
2022-11-30T02:50:14.411Z,10.10
2022-11-30T02:53:02.806Z,10.00
2022-11-30T02:55:51.189Z,8.93
2022-11-30T02:58:39.713Z,9.17
2022-11-30T03:01:28.315Z,9.07
2022-11-30T03:04:18.137Z,9.97
2022-11-30T03:07:06.698Z,9.30
2022-11-30T03:09:55.241Z,8.93
2022-11-30T03:12:43.677Z,9.93
2022-11-30T03:15:32.160Z,10.20
2022-11-30T03:18:20.569Z,9.37
2022-11-30T03:21:11.116Z,10.10
2022-11-30T03:23:59.597Z,10.60
2022-11-30T03:26:47.979Z,9.90
2022-11-30T03:29:36.406Z,9.90
2022-11-30T03:32:25.017Z,10.57
2022-11-30T03:35:13.614Z,9.60
2022-11-30T03:38:03.307Z,10.67
2022-11-30T03:40:51.719Z,9.90
2022-11-30T03:43:40.095Z,10.07
2022-11-30T03:46:28.497Z,11.17
2022-11-30T03:49:16.919Z,10.30
2022-11-30T03:52:05.653Z,10.00
2022-11-30T03:54:55.450Z,10.47
2022-11-30T03:57:43.854Z,9.40
2022-11-30T04:00:32.270Z,9.63
2022-11-30T04:03:20.651Z,11.00
2022-11-30T04:06:10.398Z,9.53
2022-11-30T04:08:58.768Z,10.27
2022-11-30T04:11:48.498Z,9.90
2022-11-30T04:14:36.886Z,10.87
2022-11-30T04:17:25.279Z,11.47
2022-11-30T04:20:14.088Z,10.97
2022-11-30T04:23:02.467Z,10.67
2022-11-30T04:25:51.843Z,11.60
2022-11-30T04:28:41.805Z,9.93
2022-11-30T04:31:30.430Z,10.03
2022-11-30T04:34:18.872Z,10.20
2022-11-30T04:37:07.575Z,9.83
2022-11-30T04:39:56.006Z,10.13
2022-11-30T04:42:44.424Z,10.13
2022-11-30T04:45:35.742Z,10.33
2022-11-30T04:48:24.519Z,11.93
2022-11-30T04:51:12.994Z,11.20
2022-11-30T04:54:01.420Z,10.73
2022-11-30T04:56:49.990Z,10.37
2022-11-30T04:59:38.361Z,10.93
2022-11-30T05:02:30.049Z,10.43
2022-11-30T05:05:18.657Z,11.27
2022-11-30T05:08:07.224Z,10.23
2022-11-30T05:10:55.867Z,11.37
2022-11-30T05:13:44.233Z,11.80
2022-11-30T05:16:32.690Z,11.43
2022-11-30T05:19:22.454Z,12.57
2022-11-30T05:22:10.854Z,13.47
2022-11-30T05:24:59.229Z,12.53
2022-11-30T05:27:47.586Z,13.47
2022-11-30T05:30:35.987Z,13.03
2022-11-30T05:33:24.373Z,12.57
2022-11-30T05:36:14.116Z,12.73
2022-11-30T05:39:02.500Z,12.67
2022-11-30T05:41:50.932Z,13.10
2022-11-30T05:44:39.363Z,11.67
2022-11-30T05:47:27.760Z,12.33
2022-11-30T05:50:16.423Z,12.90
2022-11-30T05:53:06.196Z,12.50
2022-11-30T05:55:54.707Z,12.43
2022-11-30T05:58:43.130Z,11.27
2022-11-30T06:01:31.622Z,12.40
2022-11-30T06:04:20.030Z,11.70
2022-11-30T06:07:11.811Z,11.90
2022-11-30T06:10:01.595Z,12.07
2022-11-30T06:12:50.204Z,12.67
2022-11-30T06:15:38.754Z,12.43
2022-11-30T06:18:27.143Z,12.13
2022-11-30T06:21:19.639Z,12.20
2022-11-30T06:24:11.232Z,11.97
2022-11-30T06:27:00.960Z,11.50
2022-11-30T06:29:49.389Z,12.93
2022-11-30T06:32:37.976Z,12.17
2022-11-30T06:35:26.539Z,11.30
2022-11-30T06:38:14.897Z,12.27
2022-11-30T06:41:06.787Z,10.60
2022-11-30T06:43:56.604Z,10.10
2022-11-30T06:46:45.039Z,10.57
2022-11-30T06:49:33.502Z,10.80
2022-11-30T06:52:23.822Z,10.87
2022-11-30T06:55:29.073Z,11.33
2022-11-30T06:58:37.204Z,10.80
2022-11-30T07:01:30.241Z,10.70
2022-11-30T07:03:58.394Z,10.93
2022-11-30T07:06:26.598Z,9.87
2022-11-30T07:08:54.718Z,8.97
2022-11-30T07:11:22.902Z,8.93
2022-11-30T07:13:50.983Z,8.53
2022-11-30T07:16:19.150Z,7.83
2022-11-30T07:18:48.649Z,8.73
2022-11-30T07:21:16.746Z,9.40
2022-11-30T07:24:02.376Z,8.60
2022-11-30T07:26:30.546Z,8.77
2022-11-30T07:28:59.056Z,9.17
2022-11-30T07:31:28.828Z,8.40
2022-11-30T07:33:59.630Z,7.67
2022-11-30T07:36:29.575Z,7.93
2022-11-30T07:38:57.697Z,8.83
2022-11-30T07:41:26.079Z,9.97
2022-11-30T07:43:54.171Z,8.83
2022-11-30T07:46:22.368Z,8.20
2022-11-30T07:48:50.692Z,8.93
2022-11-30T07:51:21.232Z,9.93
2022-11-30T07:53:49.743Z,10.70
2022-11-30T07:56:19.936Z,10.77
2022-11-30T07:58:48.584Z,10.03
2022-11-30T08:01:18.532Z,10.13
2022-11-30T08:03:47.108Z,11.47
2022-11-30T08:06:17.110Z,12.10
2022-11-30T08:08:47.034Z,11.73
2022-11-30T08:11:16.551Z,11.13
2022-11-30T08:13:44.945Z,10.43
2022-11-30T08:16:15.268Z,10.67
2022-11-30T08:18:43.609Z,10.40
2022-11-30T08:21:13.122Z,13.30
2022-11-30T08:23:42.727Z,14.60
2022-11-30T08:26:14.470Z,18.00
2022-11-30T08:28:42.916Z,14.73
2022-11-30T08:31:13.303Z,13.80
2022-11-30T08:33:41.618Z,15.53
2022-11-30T08:36:10.371Z,14.50
2022-11-30T08:38:38.684Z,14.37
2022-11-30T08:41:07.400Z,14.83
2022-11-30T08:43:36.922Z,15.57
2022-11-30T08:46:21.594Z,16.33
2022-11-30T08:49:12.880Z,18.63
2022-11-30T08:52:15.315Z,20.80
2022-11-30T08:54:32.300Z,21.47
2022-11-30T08:57:00.454Z,16.50
2022-11-30T08:59:32.171Z,15.77
2022-11-30T09:02:00.353Z,16.67
2022-11-30T09:04:28.609Z,17.80
2022-11-30T09:06:59.030Z,16.83
2022-11-30T09:09:27.460Z,15.27
2022-11-30T09:11:55.602Z,14.57
2022-11-30T09:14:23.902Z,15.90
2022-11-30T09:16:54.048Z,15.70
2022-11-30T09:19:22.269Z,16.30
2022-11-30T09:21:52.259Z,16.93
2022-11-30T09:24:20.927Z,36.87
2022-11-30T09:26:49.140Z,18.87
2022-11-30T09:29:17.262Z,20.43
2022-11-30T09:31:45.557Z,21.23
2022-11-30T09:34:15.028Z,17.77
2022-11-30T09:36:43.201Z,15.90
2022-11-30T09:39:12.649Z,16.40
2022-11-30T09:42:14.944Z,19.33
2022-11-30T09:44:50.599Z,17.67
2022-11-30T09:47:43.377Z,17.53
2022-11-30T09:50:15.629Z,16.10
2022-11-30T09:52:47.609Z,17.10
2022-11-30T09:55:22.525Z,16.73
2022-11-30T09:57:53.233Z,15.77
2022-11-30T10:00:23.144Z,14.70
2022-11-30T10:02:52.250Z,14.53
2022-11-30T10:05:23.667Z,15.30
2022-11-30T10:08:18.207Z,14.63
2022-11-30T10:10:52.438Z,13.70
2022-11-30T10:13:44.916Z,14.50
2022-11-30T10:16:17.315Z,13.27
2022-11-30T10:18:51.792Z,14.03
2022-11-30T10:21:33.769Z,12.47
2022-11-30T10:24:13.543Z,11.97
2022-11-30T10:26:44.301Z,10.13
2022-11-30T10:29:18.850Z,11.57
2022-11-30T10:31:48.368Z,11.40
2022-11-30T10:34:21.679Z,11.33
2022-11-30T10:36:54.869Z,11.30
2022-11-30T10:39:27.386Z,20.93
2022-11-30T10:42:00.190Z,11.53
2022-11-30T10:44:29.874Z,11.00
2022-11-30T10:47:01.453Z,10.53
2022-11-30T10:49:30.382Z,14.63
2022-11-30T10:52:02.466Z,38.20
2022-11-30T10:54:30.942Z,57.00
2022-11-30T10:57:00.996Z,31.13
2022-11-30T10:59:36.433Z,22.40
2022-11-30T11:02:06.869Z,51.70
2022-11-30T11:04:35.165Z,50.87
2022-11-30T11:07:10.011Z,25.53
2022-11-30T11:09:39.845Z,16.33
2022-11-30T11:12:14.927Z,11.00
2022-11-30T11:14:43.158Z,16.07
2022-11-30T11:17:23.481Z,10.83
2022-11-30T11:19:52.091Z,9.57
2022-11-30T11:22:22.700Z,9.67
2022-11-30T11:24:52.027Z,9.90
2022-11-30T11:27:27.495Z,10.53
2022-11-30T11:30:03.046Z,10.13
2022-11-30T11:32:31.406Z,9.23
2022-11-30T11:34:59.589Z,9.67
2022-11-30T11:37:31.482Z,9.20
2022-11-30T11:40:06.198Z,8.57
2022-11-30T11:42:38.375Z,8.77
2022-11-30T11:45:07.911Z,8.57
2022-11-30T11:47:41.279Z,8.90
2022-11-30T11:51:04.444Z,8.57
2022-11-30T11:53:24.974Z,8.23
2022-11-30T11:55:56.731Z,7.80
2022-11-30T11:58:33.893Z,7.80
2022-11-30T12:01:31.458Z,7.07
2022-11-30T12:04:01.777Z,7.20
2022-11-30T12:06:29.996Z,7.67
2022-11-30T12:09:01.890Z,7.83
2022-11-30T12:11:32.907Z,7.30
2022-11-30T12:14:01.744Z,6.43
2022-11-30T12:16:38.085Z,7.03
2022-11-30T12:19:13.509Z,6.80
2022-11-30T12:21:52.647Z,7.70
2022-11-30T12:24:49.179Z,8.53
2022-11-30T12:27:23.485Z,9.57
2022-11-30T12:30:00.702Z,9.80
2022-11-30T12:32:35.823Z,9.90
2022-11-30T12:35:14.526Z,9.60
2022-11-30T12:37:51.403Z,7.10
2022-11-30T12:40:31.081Z,9.20
2022-11-30T12:43:05.769Z,7.40
2022-11-30T12:45:37.266Z,6.57
2022-11-30T12:48:17.214Z,6.73
2022-11-30T12:50:53.326Z,6.40
2022-11-30T12:53:24.930Z,6.50
2022-11-30T12:56:04.718Z,6.10
2022-11-30T12:58:41.640Z,5.10
2022-11-30T13:01:20.221Z,5.37
2022-11-30T13:04:00.233Z,4.93
2022-11-30T13:06:31.252Z,4.80
2022-11-30T13:09:02.219Z,4.80
2022-11-30T13:11:35.893Z,5.20
2022-11-30T13:14:05.104Z,4.53
2022-11-30T13:16:33.337Z,5.30
2022-11-30T13:19:16.488Z,5.13
2022-11-30T13:21:50.260Z,5.50
2022-11-30T13:24:23.596Z,4.90
2022-11-30T13:26:55.976Z,4.97
2022-11-30T13:29:52.342Z,4.93
2022-11-30T13:32:56.268Z,5.00
2022-11-30T13:35:42.491Z,5.60
2022-11-30T13:41:08.307Z,6.10
2022-11-30T13:43:40.707Z,5.27
2022-11-30T13:46:17.199Z,5.33
2022-11-30T13:48:45.707Z,4.50
2022-11-30T13:51:14.048Z,4.80
2022-11-30T13:53:42.360Z,4.37
2022-11-30T13:56:34.071Z,4.30
2022-11-30T13:59:36.229Z,4.90
2022-11-30T14:02:53.764Z,5.23
2022-11-30T14:05:24.796Z,4.70
2022-11-30T14:08:37.039Z,4.60
2022-11-30T14:11:40.141Z,4.70
2022-11-30T14:14:47.212Z,4.23
2022-11-30T14:17:21.136Z,4.30
2022-11-30T14:19:52.013Z,4.60
2022-11-30T14:22:20.198Z,4.57
2022-11-30T14:24:49.176Z,4.13
2022-11-30T14:27:21.549Z,4.30
2022-11-30T14:29:53.642Z,4.23
2022-11-30T14:32:30.972Z,4.43
2022-11-30T14:35:08.837Z,4.17
2022-11-30T14:37:42.393Z,4.37
2022-11-30T14:40:19.057Z,4.63
2022-11-30T14:42:52.372Z,4.00
2022-11-30T14:45:23.762Z,4.60
2022-11-30T14:47:53.697Z,4.37
2022-11-30T14:50:25.154Z,4.47
2022-11-30T14:53:04.329Z,4.57
2022-11-30T14:55:36.388Z,4.60
2022-11-30T14:58:14.353Z,4.60
2022-11-30T15:00:44.874Z,4.23
2022-11-30T15:03:21.440Z,4.43
2022-11-30T15:05:52.810Z,4.30
2022-11-30T15:08:20.905Z,4.20
2022-11-30T15:10:49.024Z,4.50
2022-11-30T15:13:18.516Z,4.03
2022-11-30T15:15:55.020Z,4.40
2022-11-30T15:18:23.643Z,4.67
2022-11-30T15:20:55.776Z,4.20
2022-11-30T15:23:24.088Z,4.30
2022-11-30T15:25:53.575Z,4.93
2022-11-30T15:28:24.092Z,4.90
2022-11-30T15:30:56.405Z,5.20
2022-11-30T15:33:25.179Z,6.00
2022-11-30T15:36:18.807Z,6.47
2022-11-30T15:38:44.894Z,6.20
2022-11-30T15:41:19.434Z,7.10
2022-11-30T15:43:51.308Z,6.87
2022-11-30T15:46:36.829Z,18.77
2022-11-30T15:49:17.886Z,8.47
2022-11-30T15:51:47.117Z,409.10
2022-11-30T15:54:15.483Z,640.50
2022-11-30T15:56:55.928Z,237.43
2022-11-30T15:59:25.426Z,489.53
2022-11-30T16:02:02.011Z,111.93
2022-11-30T16:04:30.812Z,40.67
2022-11-30T16:06:58.935Z,21.67
2022-11-30T16:09:32.408Z,13.60
2022-11-30T16:12:02.563Z,9.80
2022-11-30T16:14:31.032Z,9.47
2022-11-30T16:17:04.174Z,9.17
2022-11-30T16:19:36.777Z,9.33
2022-11-30T16:22:04.935Z,9.50
2022-11-30T16:24:33.124Z,8.80
2022-11-30T16:27:01.253Z,9.20
2022-11-30T16:29:29.428Z,9.50
2022-11-30T16:31:57.603Z,8.83
2022-11-30T16:34:27.199Z,9.17
2022-11-30T16:36:55.382Z,9.60
2022-11-30T16:39:23.525Z,9.60
2022-11-30T16:41:51.725Z,9.90
2022-11-30T16:44:19.834Z,8.93
2022-11-30T16:46:48.652Z,9.33
2022-11-30T16:49:16.805Z,9.03
2022-11-30T16:51:46.269Z,8.93
2022-11-30T16:54:15.552Z,9.90
2022-11-30T16:56:43.889Z,9.20
2022-11-30T16:59:16.403Z,8.83
2022-11-30T17:01:47.241Z,9.90
2022-11-30T17:04:17.869Z,9.03
2022-11-30T17:06:50.542Z,9.00
2022-11-30T17:09:20.244Z,8.63
2022-11-30T17:11:50.344Z,8.57
2022-11-30T17:14:18.935Z,9.00
2022-11-30T17:16:47.130Z,7.97
2022-11-30T17:19:15.488Z,9.33
2022-11-30T17:21:44.585Z,9.20
2022-11-30T17:24:14.323Z,9.13
2022-11-30T17:26:42.560Z,9.00
2022-11-30T17:29:10.677Z,8.83
2022-11-30T17:31:38.790Z,8.80
2022-11-30T17:34:08.494Z,8.77
2022-11-30T17:36:36.706Z,8.57
2022-11-30T17:39:06.848Z,9.57
2022-11-30T17:41:36.347Z,7.57
2022-11-30T17:44:04.528Z,9.37
2022-11-30T17:46:32.716Z,9.47
2022-11-30T17:49:00.897Z,8.67
2022-11-30T17:51:29.135Z,10.10
2022-11-30T17:53:57.354Z,8.50
2022-11-30T17:56:25.949Z,7.33
2022-11-30T17:58:55.459Z,6.80
2022-11-30T18:01:25.040Z,7.77
2022-11-30T18:03:53.624Z,8.07
2022-11-30T18:06:21.878Z,7.40
2022-11-30T18:08:50.006Z,6.03
2022-11-30T18:11:20.150Z,5.87
2022-11-30T18:13:48.456Z,5.73
2022-11-30T18:16:19.137Z,5.67
2022-11-30T18:18:48.622Z,5.60
2022-11-30T18:21:18.754Z,5.23
2022-11-30T18:23:47.162Z,5.87
2022-11-30T18:26:17.755Z,5.23
2022-11-30T18:28:45.914Z,5.40
2022-11-30T18:31:14.123Z,6.10
2022-11-30T18:33:43.672Z,6.37
2022-11-30T18:36:11.863Z,6.37
2022-11-30T18:38:41.506Z,5.87
2022-11-30T18:41:09.664Z,5.80
2022-11-30T18:43:38.837Z,6.10
2022-11-30T18:46:08.678Z,6.47
2022-11-30T18:48:37.052Z,6.50
2022-11-30T18:51:12.588Z,6.40
2022-11-30T18:53:40.745Z,6.60
2022-11-30T18:56:10.981Z,5.57
2022-11-30T18:58:39.137Z,6.40
2022-11-30T19:01:09.321Z,6.43
2022-11-30T19:03:37.974Z,6.13
2022-11-30T19:06:06.912Z,6.93
2022-11-30T19:08:36.609Z,7.20
2022-11-30T19:11:05.593Z,7.33
2022-11-30T19:13:34.103Z,7.00
2022-11-30T19:16:03.389Z,7.20
2022-11-30T19:18:31.481Z,6.87
2022-11-30T19:20:59.811Z,6.90
2022-11-30T19:23:28.105Z,7.80
2022-11-30T19:26:02.112Z,12.10
2022-11-30T19:28:30.768Z,12.70
2022-11-30T19:30:59.000Z,9.07
2022-11-30T19:33:27.436Z,9.13
2022-11-30T19:36:01.415Z,7.37
2022-11-30T19:38:29.623Z,7.83
2022-11-30T19:40:57.719Z,7.80
2022-11-30T19:43:27.243Z,7.93
2022-11-30T19:45:55.482Z,7.83
2022-11-30T19:48:23.612Z,8.00
2022-11-30T19:50:51.707Z,8.63
2022-11-30T19:53:20.308Z,8.37
2022-11-30T19:55:48.466Z,7.60
2022-11-30T19:58:16.598Z,7.90
2022-11-30T20:00:47.911Z,7.13
2022-11-30T20:03:16.358Z,6.80
2022-11-30T20:05:50.135Z,7.23
2022-11-30T20:08:18.300Z,6.80
2022-11-30T20:10:46.539Z,7.23
2022-11-30T20:13:14.694Z,7.00
2022-11-30T20:15:43.016Z,6.93
2022-11-30T20:18:13.030Z,6.90
2022-11-30T20:20:41.197Z,7.10
2022-11-30T20:23:09.324Z,6.00
2022-11-30T20:25:37.455Z,7.20
2022-11-30T20:28:09.651Z,6.53
2022-11-30T20:30:40.516Z,6.50
2022-11-30T20:33:08.700Z,6.47
2022-11-30T20:35:38.261Z,6.50
2022-11-30T20:38:06.422Z,6.50
2022-11-30T20:40:37.564Z,6.47
2022-11-30T20:43:05.950Z,6.37
2022-11-30T20:45:34.100Z,6.20
2022-11-30T20:48:02.638Z,5.53
2022-11-30T20:50:30.869Z,5.83
2022-11-30T20:53:00.329Z,5.77
2022-11-30T20:55:28.461Z,5.90
2022-11-30T20:57:56.627Z,5.73
2022-11-30T21:00:24.940Z,5.73
2022-11-30T21:02:53.046Z,5.00
2022-11-30T21:05:40.110Z,5.33
2022-11-30T21:08:31.640Z,5.37
2022-11-30T21:11:21.297Z,4.97
2022-11-30T21:14:10.427Z,5.10
2022-11-30T21:16:58.826Z,5.00
2022-11-30T21:19:47.242Z,5.10
2022-11-30T21:22:35.639Z,5.37
2022-11-30T21:25:25.399Z,4.77
2022-11-30T21:28:13.800Z,4.90
2022-11-30T21:31:04.273Z,5.40
2022-11-30T21:33:53.805Z,4.60
2022-11-30T21:36:42.508Z,4.50
2022-11-30T21:39:31.053Z,4.87
2022-11-30T21:42:20.834Z,5.17
2022-11-30T21:45:11.090Z,4.40
2022-11-30T21:47:59.498Z,4.57
2022-11-30T21:50:47.924Z,4.13
2022-11-30T21:53:38.102Z,5.40
2022-11-30T21:56:28.188Z,5.87
2022-11-30T21:59:17.948Z,5.83
2022-11-30T22:02:06.358Z,5.10
2022-11-30T22:04:54.765Z,5.13
2022-11-30T22:07:43.391Z,4.50
2022-11-30T22:10:32.649Z,4.40
2022-11-30T22:13:21.181Z,3.87
2022-11-30T22:16:14.082Z,4.33
2022-11-30T22:19:02.575Z,4.70
2022-11-30T22:21:51.166Z,4.70
2022-11-30T22:24:39.728Z,4.53
2022-11-30T22:27:28.101Z,4.80
2022-11-30T22:30:16.993Z,4.83
2022-11-30T22:33:06.727Z,4.03
2022-11-30T22:35:55.335Z,4.03
2022-11-30T22:38:43.787Z,4.27
2022-11-30T22:41:32.275Z,4.60
2022-11-30T22:44:20.905Z,3.60
2022-11-30T22:47:09.372Z,3.93
2022-11-30T22:49:59.269Z,4.17
2022-11-30T22:53:03.049Z,5.00
2022-11-30T22:55:51.990Z,5.10
2022-11-30T22:58:40.824Z,4.80
2022-11-30T23:01:30.399Z,4.90
2022-11-30T23:04:20.195Z,5.20
2022-11-30T23:07:10.080Z,4.90
2022-11-30T23:09:58.508Z,6.03
2022-11-30T23:13:01.956Z,7.23
2022-11-30T23:15:50.857Z,6.73
2022-11-30T23:18:41.464Z,7.10
2022-11-30T23:21:32.757Z,7.00
2022-11-30T23:24:25.774Z,6.63
2022-11-30T23:27:14.150Z,6.57
2022-11-30T23:30:02.661Z,6.97
2022-11-30T23:32:55.671Z,7.70
2022-11-30T23:35:44.548Z,7.47
2022-11-30T23:38:33.066Z,7.67
2022-11-30T23:41:22.841Z,7.70
2022-11-30T23:44:11.810Z,7.17
2022-11-30T23:47:00.631Z,8.07
2022-11-30T23:49:49.798Z,8.30
2022-11-30T23:52:38.378Z,8.27
2022-11-30T23:55:26.864Z,7.97
2022-11-30T23:58:16.604Z,8.00
